sensor_id;sensor_type;location;lat;lon;timestamp;temperature;humidity
58517;DHT22;44308;50.810;0.284;2023-03-16T00:01:17;9.00;99.90
58517;DHT22;44308;50.810;0.284;2023-03-16T00:03:46;8.90;99.90
58517;DHT22;44308;50.810;0.284;2023-03-16T00:06:12;9.00;99.90
58517;DHT22;44308;50.810;0.284;2023-03-16T00:08:38;8.90;99.90
58517;DHT22;44308;50.810;0.284;2023-03-16T00:11:04;9.00;99.90
58517;DHT22;44308;50.810;0.284;2023-03-16T00:13:30;9.00;99.90
58517;DHT22;44308;50.810;0.284;2023-03-16T00:15:59;9.10;99.90
58517;DHT22;44308;50.810;0.284;2023-03-16T00:18:27;9.10;99.90
58517;DHT22;44308;50.810;0.284;2023-03-16T00:21:00;9.20;99.90
58517;DHT22;44308;50.810;0.284;2023-03-16T00:23:29;9.10;99.90
58517;DHT22;44308;50.810;0.284;2023-03-16T00:26:01;9.10;99.90
58517;DHT22;44308;50.810;0.284;2023-03-16T00:28:28;9.20;99.90
58517;DHT22;44308;50.810;0.284;2023-03-16T00:31:06;9.20;99.90
58517;DHT22;44308;50.810;0.284;2023-03-16T00:33:33;9.20;99.90
58517;DHT22;44308;50.810;0.284;2023-03-16T00:36:00;9.20;99.90
58517;DHT22;44308;50.810;0.284;2023-03-16T00:38:27;9.20;99.90
58517;DHT22;44308;50.810;0.284;2023-03-16T00:40:53;9.30;99.90
58517;DHT22;44308;50.810;0.284;2023-03-16T00:43:19;9.20;99.90
58517;DHT22;44308;50.810;0.284;2023-03-16T00:45:45;9.30;99.90
58517;DHT22;44308;50.810;0.284;2023-03-16T00:48:11;9.30;99.90
58517;DHT22;44308;50.810;0.284;2023-03-16T00:50:38;9.30;99.90
58517;DHT22;44308;50.810;0.284;2023-03-16T00:53:04;9.30;99.90
58517;DHT22;44308;50.810;0.284;2023-03-16T00:55:30;9.40;99.90
58517;DHT22;44308;50.810;0.284;2023-03-16T00:57:56;9.30;99.90
58517;DHT22;44308;50.810;0.284;2023-03-16T01:00:22;9.40;99.90
58517;DHT22;44308;50.810;0.284;2023-03-16T01:02:51;9.40;99.90
58517;DHT22;44308;50.810;0.284;2023-03-16T01:05:18;9.40;99.90
58517;DHT22;44308;50.810;0.284;2023-03-16T01:07:46;9.40;99.90
58517;DHT22;44308;50.810;0.284;2023-03-16T01:10:12;9.40;99.90
58517;DHT22;44308;50.810;0.284;2023-03-16T01:12:38;9.30;99.90
58517;DHT22;44308;50.810;0.284;2023-03-16T01:15:04;9.40;99.90
58517;DHT22;44308;50.810;0.284;2023-03-16T01:17:33;9.40;99.90
58517;DHT22;44308;50.810;0.284;2023-03-16T01:20:00;9.50;99.90
58517;DHT22;44308;50.810;0.284;2023-03-16T01:22:26;9.40;99.90
58517;DHT22;44308;50.810;0.284;2023-03-16T01:24:51;9.50;99.90
58517;DHT22;44308;50.810;0.284;2023-03-16T01:27:17;9.50;99.90
58517;DHT22;44308;50.810;0.284;2023-03-16T01:29:43;9.50;99.90
58517;DHT22;44308;50.810;0.284;2023-03-16T01:32:12;9.60;99.90
58517;DHT22;44308;50.810;0.284;2023-03-16T01:34:37;9.50;99.90
58517;DHT22;44308;50.810;0.284;2023-03-16T01:37:04;9.60;99.90
58517;DHT22;44308;50.810;0.284;2023-03-16T01:39:30;9.60;99.90
58517;DHT22;44308;50.810;0.284;2023-03-16T01:41:56;9.60;99.90
58517;DHT22;44308;50.810;0.284;2023-03-16T01:44:25;9.70;99.90
58517;DHT22;44308;50.810;0.284;2023-03-16T01:46:57;9.60;99.90
58517;DHT22;44308;50.810;0.284;2023-03-16T01:49:32;9.60;99.90
58517;DHT22;44308;50.810;0.284;2023-03-16T01:51:59;9.60;99.90
58517;DHT22;44308;50.810;0.284;2023-03-16T01:54:46;9.60;99.90
58517;DHT22;44308;50.810;0.284;2023-03-16T01:57:20;9.70;99.90
58517;DHT22;44308;50.810;0.284;2023-03-16T01:59:54;9.70;99.90
58517;DHT22;44308;50.810;0.284;2023-03-16T02:02:24;9.80;99.90
58517;DHT22;44308;50.810;0.284;2023-03-16T02:05:00;9.80;99.90
58517;DHT22;44308;50.810;0.284;2023-03-16T02:07:31;9.90;99.90
58517;DHT22;44308;50.810;0.284;2023-03-16T02:10:00;9.90;99.90
58517;DHT22;44308;50.810;0.284;2023-03-16T02:12:27;9.90;99.90
58517;DHT22;44308;50.810;0.284;2023-03-16T02:14:54;9.90;99.90
58517;DHT22;44308;50.810;0.284;2023-03-16T02:17:26;9.90;99.90
58517;DHT22;44308;50.810;0.284;2023-03-16T02:22:25;10.00;99.90
58517;DHT22;44308;50.810;0.284;2023-03-16T02:24:52;10.00;99.90
58517;DHT22;44308;50.810;0.284;2023-03-16T02:30:14;10.00;99.90
58517;DHT22;44308;50.810;0.284;2023-03-16T02:32:41;10.00;99.90
58517;DHT22;44308;50.810;0.284;2023-03-16T02:35:08;10.00;99.90
58517;DHT22;44308;50.810;0.284;2023-03-16T02:37:36;10.00;99.90
58517;DHT22;44308;50.810;0.284;2023-03-16T02:40:12;9.90;99.90
58517;DHT22;44308;50.810;0.284;2023-03-16T02:42:41;9.80;99.90
58517;DHT22;44308;50.810;0.284;2023-03-16T02:45:08;9.70;99.90
58517;DHT22;44308;50.810;0.284;2023-03-16T02:47:42;9.70;99.90
58517;DHT22;44308;50.810;0.284;2023-03-16T02:50:10;9.60;99.90
58517;DHT22;44308;50.810;0.284;2023-03-16T02:52:37;9.60;99.90
58517;DHT22;44308;50.810;0.284;2023-03-16T02:55:05;9.60;99.90
58517;DHT22;44308;50.810;0.284;2023-03-16T02:57:31;9.70;99.90
58517;DHT22;44308;50.810;0.284;2023-03-16T03:00:00;9.60;99.90
58517;DHT22;44308;50.810;0.284;2023-03-16T03:02:26;9.70;99.90
58517;DHT22;44308;50.810;0.284;2023-03-16T03:04:51;9.70;99.90
58517;DHT22;44308;50.810;0.284;2023-03-16T03:07:20;9.80;99.90
58517;DHT22;44308;50.810;0.284;2023-03-16T03:09:48;9.80;99.90
58517;DHT22;44308;50.810;0.284;2023-03-16T03:12:17;9.80;99.90
58517;DHT22;44308;50.810;0.284;2023-03-16T03:14:43;9.80;99.90
58517;DHT22;44308;50.810;0.284;2023-03-16T03:17:09;9.80;99.90
58517;DHT22;44308;50.810;0.284;2023-03-16T03:19:37;9.80;99.90
58517;DHT22;44308;50.810;0.284;2023-03-16T03:22:04;9.70;99.90
58517;DHT22;44308;50.810;0.284;2023-03-16T03:24:31;9.70;99.90
58517;DHT22;44308;50.810;0.284;2023-03-16T03:26:57;9.70;99.90
58517;DHT22;44308;50.810;0.284;2023-03-16T03:29:26;9.70;99.90
58517;DHT22;44308;50.810;0.284;2023-03-16T03:32:05;9.70;99.90
58517;DHT22;44308;50.810;0.284;2023-03-16T03:34:31;9.70;99.90
58517;DHT22;44308;50.810;0.284;2023-03-16T03:37:15;9.80;99.90
58517;DHT22;44308;50.810;0.284;2023-03-16T03:39:41;9.80;99.90
58517;DHT22;44308;50.810;0.284;2023-03-16T03:42:07;9.80;99.90
58517;DHT22;44308;50.810;0.284;2023-03-16T03:44:35;9.80;99.90
58517;DHT22;44308;50.810;0.284;2023-03-16T03:47:02;9.70;99.90
58517;DHT22;44308;50.810;0.284;2023-03-16T03:49:31;9.80;99.90
58517;DHT22;44308;50.810;0.284;2023-03-16T03:51:56;9.80;99.90
58517;DHT22;44308;50.810;0.284;2023-03-16T03:54:24;9.80;99.90
58517;DHT22;44308;50.810;0.284;2023-03-16T03:57:09;9.80;99.90
58517;DHT22;44308;50.810;0.284;2023-03-16T03:59:35;9.70;99.90
58517;DHT22;44308;50.810;0.284;2023-03-16T04:02:07;9.80;99.90
58517;DHT22;44308;50.810;0.284;2023-03-16T04:04:33;9.70;99.90
58517;DHT22;44308;50.810;0.284;2023-03-16T04:07:00;9.70;99.90
58517;DHT22;44308;50.810;0.284;2023-03-16T04:09:25;9.70;99.90
58517;DHT22;44308;50.810;0.284;2023-03-16T04:11:51;9.80;99.90
58517;DHT22;44308;50.810;0.284;2023-03-16T04:14:17;9.80;99.90
58517;DHT22;44308;50.810;0.284;2023-03-16T04:16:44;9.90;99.90
58517;DHT22;44308;50.810;0.284;2023-03-16T04:19:10;9.90;99.90
58517;DHT22;44308;50.810;0.284;2023-03-16T04:21:36;10.00;99.90
58517;DHT22;44308;50.810;0.284;2023-03-16T04:24:02;10.00;99.90
58517;DHT22;44308;50.810;0.284;2023-03-16T04:26:30;10.00;99.90
58517;DHT22;44308;50.810;0.284;2023-03-16T04:28:57;9.90;99.90
58517;DHT22;44308;50.810;0.284;2023-03-16T04:31:26;9.90;99.90
58517;DHT22;44308;50.810;0.284;2023-03-16T04:33:51;9.90;99.90
58517;DHT22;44308;50.810;0.284;2023-03-16T04:36:39;10.00;99.90
58517;DHT22;44308;50.810;0.284;2023-03-16T04:39:06;10.00;99.90
58517;DHT22;44308;50.810;0.284;2023-03-16T04:41:32;10.00;99.90
58517;DHT22;44308;50.810;0.284;2023-03-16T04:43:58;10.00;99.90
58517;DHT22;44308;50.810;0.284;2023-03-16T04:46:25;10.00;99.90
58517;DHT22;44308;50.810;0.284;2023-03-16T04:48:52;10.10;99.90
58517;DHT22;44308;50.810;0.284;2023-03-16T04:51:17;10.20;99.90
58517;DHT22;44308;50.810;0.284;2023-03-16T04:53:43;10.10;99.90
58517;DHT22;44308;50.810;0.284;2023-03-16T04:56:09;10.10;99.90
58517;DHT22;44308;50.810;0.284;2023-03-16T04:58:43;10.10;99.90
58517;DHT22;44308;50.810;0.284;2023-03-16T05:01:11;10.10;99.90
58517;DHT22;44308;50.810;0.284;2023-03-16T05:03:37;10.10;99.90
58517;DHT22;44308;50.810;0.284;2023-03-16T05:06:04;10.00;99.90
58517;DHT22;44308;50.810;0.284;2023-03-16T05:08:30;10.10;99.90
58517;DHT22;44308;50.810;0.284;2023-03-16T05:11:02;10.00;99.90
58517;DHT22;44308;50.810;0.284;2023-03-16T05:13:28;10.00;99.90
58517;DHT22;44308;50.810;0.284;2023-03-16T05:15:53;10.00;99.90
58517;DHT22;44308;50.810;0.284;2023-03-16T05:18:20;9.90;99.90
58517;DHT22;44308;50.810;0.284;2023-03-16T05:20:54;9.90;99.90
58517;DHT22;44308;50.810;0.284;2023-03-16T05:23:23;9.80;99.90
58517;DHT22;44308;50.810;0.284;2023-03-16T05:25:49;9.80;99.90
58517;DHT22;44308;50.810;0.284;2023-03-16T05:28:16;9.80;99.90
58517;DHT22;44308;50.810;0.284;2023-03-16T05:30:42;9.80;99.90
58517;DHT22;44308;50.810;0.284;2023-03-16T05:33:09;9.80;99.90
58517;DHT22;44308;50.810;0.284;2023-03-16T05:35:35;9.70;99.90
58517;DHT22;44308;50.810;0.284;2023-03-16T05:38:04;9.80;99.90
58517;DHT22;44308;50.810;0.284;2023-03-16T05:40:29;9.70;99.90
58517;DHT22;44308;50.810;0.284;2023-03-16T05:42:56;9.70;99.90
58517;DHT22;44308;50.810;0.284;2023-03-16T05:45:23;9.70;99.90
58517;DHT22;44308;50.810;0.284;2023-03-16T05:47:50;9.70;99.90
58517;DHT22;44308;50.810;0.284;2023-03-16T05:50:17;9.80;99.90
58517;DHT22;44308;50.810;0.284;2023-03-16T05:52:44;9.80;99.90
58517;DHT22;44308;50.810;0.284;2023-03-16T05:55:12;9.80;99.90
58517;DHT22;44308;50.810;0.284;2023-03-16T05:57:41;9.80;99.90
58517;DHT22;44308;50.810;0.284;2023-03-16T06:00:10;9.80;99.90
58517;DHT22;44308;50.810;0.284;2023-03-16T06:02:44;9.80;99.90
58517;DHT22;44308;50.810;0.284;2023-03-16T06:05:14;9.80;99.90
58517;DHT22;44308;50.810;0.284;2023-03-16T06:07:41;9.90;99.90
58517;DHT22;44308;50.810;0.284;2023-03-16T06:10:08;10.00;99.90
58517;DHT22;44308;50.810;0.284;2023-03-16T06:12:34;10.00;99.90
58517;DHT22;44308;50.810;0.284;2023-03-16T06:15:00;10.10;99.90
58517;DHT22;44308;50.810;0.284;2023-03-16T06:17:26;10.10;99.90
58517;DHT22;44308;50.810;0.284;2023-03-16T06:19:52;10.10;99.90
58517;DHT22;44308;50.810;0.284;2023-03-16T06:22:18;10.10;99.90
58517;DHT22;44308;50.810;0.284;2023-03-16T06:24:44;10.00;99.90
58517;DHT22;44308;50.810;0.284;2023-03-16T06:27:10;10.00;99.90
58517;DHT22;44308;50.810;0.284;2023-03-16T06:29:35;9.90;99.90
58517;DHT22;44308;50.810;0.284;2023-03-16T06:32:01;9.90;99.90
58517;DHT22;44308;50.810;0.284;2023-03-16T06:34:27;9.90;99.90
58517;DHT22;44308;50.810;0.284;2023-03-16T06:36:55;9.90;99.90
58517;DHT22;44308;50.810;0.284;2023-03-16T06:39:21;9.80;99.90
58517;DHT22;44308;50.810;0.284;2023-03-16T06:41:47;9.80;99.90
58517;DHT22;44308;50.810;0.284;2023-03-16T06:44:12;9.80;99.90
58517;DHT22;44308;50.810;0.284;2023-03-16T06:46:38;9.90;99.90
58517;DHT22;44308;50.810;0.284;2023-03-16T06:49:04;9.80;99.90
58517;DHT22;44308;50.810;0.284;2023-03-16T06:51:30;9.80;99.90
58517;DHT22;44308;50.810;0.284;2023-03-16T06:53:56;9.80;99.90
58517;DHT22;44308;50.810;0.284;2023-03-16T06:56:23;9.90;99.90
58517;DHT22;44308;50.810;0.284;2023-03-16T06:58:49;9.90;99.90
58517;DHT22;44308;50.810;0.284;2023-03-16T07:01:16;9.90;99.90
58517;DHT22;44308;50.810;0.284;2023-03-16T07:03:42;10.00;99.90
58517;DHT22;44308;50.810;0.284;2023-03-16T07:06:08;10.00;99.90
58517;DHT22;44308;50.810;0.284;2023-03-16T07:08:34;10.10;99.90
58517;DHT22;44308;50.810;0.284;2023-03-16T07:11:00;10.10;99.90
58517;DHT22;44308;50.810;0.284;2023-03-16T07:13:26;10.10;99.90
58517;DHT22;44308;50.810;0.284;2023-03-16T07:15:52;10.20;99.90
58517;DHT22;44308;50.810;0.284;2023-03-16T07:18:19;10.20;99.90
58517;DHT22;44308;50.810;0.284;2023-03-16T07:20:47;10.20;99.90
58517;DHT22;44308;50.810;0.284;2023-03-16T07:23:14;10.20;99.90
58517;DHT22;44308;50.810;0.284;2023-03-16T07:25:39;10.20;99.90
58517;DHT22;44308;50.810;0.284;2023-03-16T07:28:06;10.10;99.90
58517;DHT22;44308;50.810;0.284;2023-03-16T07:30:32;10.00;99.90
58517;DHT22;44308;50.810;0.284;2023-03-16T07:32:57;10.10;99.90
58517;DHT22;44308;50.810;0.284;2023-03-16T07:35:23;10.00;99.90
58517;DHT22;44308;50.810;0.284;2023-03-16T07:37:55;10.10;99.90
58517;DHT22;44308;50.810;0.284;2023-03-16T07:40:53;10.10;99.90
58517;DHT22;44308;50.810;0.284;2023-03-16T07:43:22;10.10;99.90
58517;DHT22;44308;50.810;0.284;2023-03-16T07:45:56;10.10;99.90
58517;DHT22;44308;50.810;0.284;2023-03-16T07:48:34;10.20;99.90
58517;DHT22;44308;50.810;0.284;2023-03-16T07:51:05;10.20;99.90
58517;DHT22;44308;50.810;0.284;2023-03-16T07:53:37;10.30;99.90
58517;DHT22;44308;50.810;0.284;2023-03-16T07:56:32;10.30;99.90
58517;DHT22;44308;50.810;0.284;2023-03-16T07:59:07;10.30;99.90
58517;DHT22;44308;50.810;0.284;2023-03-16T08:01:33;10.40;99.90
58517;DHT22;44308;50.810;0.284;2023-03-16T08:04:23;10.40;99.90
58517;DHT22;44308;50.810;0.284;2023-03-16T08:07:03;10.30;99.90
58517;DHT22;44308;50.810;0.284;2023-03-16T08:09:42;10.40;99.90
58517;DHT22;44308;50.810;0.284;2023-03-16T08:12:11;10.40;99.90
58517;DHT22;44308;50.810;0.284;2023-03-16T08:14:37;10.50;99.90
58517;DHT22;44308;50.810;0.284;2023-03-16T08:17:05;10.40;99.90
58517;DHT22;44308;50.810;0.284;2023-03-16T08:19:32;10.30;99.90
58517;DHT22;44308;50.810;0.284;2023-03-16T08:21:58;10.30;99.90
58517;DHT22;44308;50.810;0.284;2023-03-16T08:24:26;10.30;99.90
58517;DHT22;44308;50.810;0.284;2023-03-16T08:27:11;10.20;99.90
58517;DHT22;44308;50.810;0.284;2023-03-16T08:29:37;10.30;99.90
58517;DHT22;44308;50.810;0.284;2023-03-16T08:32:03;10.30;99.90
58517;DHT22;44308;50.810;0.284;2023-03-16T08:34:29;10.30;99.90
58517;DHT22;44308;50.810;0.284;2023-03-16T08:36:54;10.40;99.90
58517;DHT22;44308;50.810;0.284;2023-03-16T08:39:20;10.40;99.90
58517;DHT22;44308;50.810;0.284;2023-03-16T08:41:46;10.50;99.90
58517;DHT22;44308;50.810;0.284;2023-03-16T08:44:12;10.70;99.90
58517;DHT22;44308;50.810;0.284;2023-03-16T08:46:39;10.80;99.90
58517;DHT22;44308;50.810;0.284;2023-03-16T08:49:05;10.90;99.90
58517;DHT22;44308;50.810;0.284;2023-03-16T08:51:31;10.90;99.90
58517;DHT22;44308;50.810;0.284;2023-03-16T08:53:58;10.90;99.90
58517;DHT22;44308;50.810;0.284;2023-03-16T08:56:24;11.00;99.90
58517;DHT22;44308;50.810;0.284;2023-03-16T08:58:50;11.10;99.90
58517;DHT22;44308;50.810;0.284;2023-03-16T09:01:17;11.30;99.90
58517;DHT22;44308;50.810;0.284;2023-03-16T09:03:44;11.50;99.90
58517;DHT22;44308;50.810;0.284;2023-03-16T09:06:12;11.50;99.90
58517;DHT22;44308;50.810;0.284;2023-03-16T09:08:39;11.60;99.90
58517;DHT22;44308;50.810;0.284;2023-03-16T09:11:08;11.80;99.90
58517;DHT22;44308;50.810;0.284;2023-03-16T09:13:34;11.90;99.90
58517;DHT22;44308;50.810;0.284;2023-03-16T09:16:01;12.00;99.90
58517;DHT22;44308;50.810;0.284;2023-03-16T09:18:27;11.90;99.90
58517;DHT22;44308;50.810;0.284;2023-03-16T09:20:57;12.00;99.90
58517;DHT22;44308;50.810;0.284;2023-03-16T09:23:23;12.00;99.90
58517;DHT22;44308;50.810;0.284;2023-03-16T09:25:51;12.00;99.90
58517;DHT22;44308;50.810;0.284;2023-03-16T09:28:19;11.90;99.90
58517;DHT22;44308;50.810;0.284;2023-03-16T09:30:44;12.60;99.90
58517;DHT22;44308;50.810;0.284;2023-03-16T09:33:11;12.20;99.90
58517;DHT22;44308;50.810;0.284;2023-03-16T09:35:37;11.90;99.90
58517;DHT22;44308;50.810;0.284;2023-03-16T09:38:03;12.00;99.90
58517;DHT22;44308;50.810;0.284;2023-03-16T09:40:29;11.60;99.90
58517;DHT22;44308;50.810;0.284;2023-03-16T09:43:37;11.50;99.90
58517;DHT22;44308;50.810;0.284;2023-03-16T09:46:25;11.10;99.90
58517;DHT22;44308;50.810;0.284;2023-03-16T09:48:53;11.00;99.90
58517;DHT22;44308;50.810;0.284;2023-03-16T09:54:48;11.00;99.90
58517;DHT22;44308;50.810;0.284;2023-03-16T09:57:24;11.70;99.90
58517;DHT22;44308;50.810;0.284;2023-03-16T09:59:51;11.70;99.90
58517;DHT22;44308;50.810;0.284;2023-03-16T10:02:42;12.20;99.90
58517;DHT22;44308;50.810;0.284;2023-03-16T10:05:14;12.30;99.90
58517;DHT22;44308;50.810;0.284;2023-03-16T10:16:15;13.10;99.90
58517;DHT22;44308;50.810;0.284;2023-03-16T10:18:43;13.30;99.90
58517;DHT22;44308;50.810;0.284;2023-03-16T10:21:12;13.30;99.90
58517;DHT22;44308;50.810;0.284;2023-03-16T10:23:44;12.80;99.90
58517;DHT22;44308;50.810;0.284;2023-03-16T10:26:27;12.50;99.90
58517;DHT22;44308;50.810;0.284;2023-03-16T10:28:56;12.20;99.90
58517;DHT22;44308;50.810;0.284;2023-03-16T10:31:22;12.50;99.90
58517;DHT22;44308;50.810;0.284;2023-03-16T10:33:52;13.10;99.90
58517;DHT22;44308;50.810;0.284;2023-03-16T10:36:32;13.10;99.90
58517;DHT22;44308;50.810;0.284;2023-03-16T10:41:27;13.20;99.90
58517;DHT22;44308;50.810;0.284;2023-03-16T10:44:00;12.90;99.90
58517;DHT22;44308;50.810;0.284;2023-03-16T10:46:57;12.40;99.90
58517;DHT22;44308;50.810;0.284;2023-03-16T10:51:54;12.20;99.90
58517;DHT22;44308;50.810;0.284;2023-03-16T10:54:31;12.50;99.90
58517;DHT22;44308;50.810;0.284;2023-03-16T10:56:58;13.00;99.90
58517;DHT22;44308;50.810;0.284;2023-03-16T11:01:54;13.20;99.90
58517;DHT22;44308;50.810;0.284;2023-03-16T11:04:19;13.60;99.90
58517;DHT22;44308;50.810;0.284;2023-03-16T11:06:55;13.20;99.90
58517;DHT22;44308;50.810;0.284;2023-03-16T11:09:32;13.60;99.90
58517;DHT22;44308;50.810;0.284;2023-03-16T11:11:59;13.70;99.90
58517;DHT22;44308;50.810;0.284;2023-03-16T11:14:27;13.50;99.90
58517;DHT22;44308;50.810;0.284;2023-03-16T11:17:17;13.60;99.90
58517;DHT22;44308;50.810;0.284;2023-03-16T11:19:52;13.80;99.90
58517;DHT22;44308;50.810;0.284;2023-03-16T11:22:23;13.60;99.90
58517;DHT22;44308;50.810;0.284;2023-03-16T11:24:58;13.20;99.90
58517;DHT22;44308;50.810;0.284;2023-03-16T11:32:51;13.00;99.90
58517;DHT22;44308;50.810;0.284;2023-03-16T11:38:19;12.90;99.90
58517;DHT22;44308;50.810;0.284;2023-03-16T11:41:32;12.70;99.90
58517;DHT22;44308;50.810;0.284;2023-03-16T11:43:55;12.50;99.90
58517;DHT22;44308;50.810;0.284;2023-03-16T11:52:01;12.60;99.90
58517;DHT22;44308;50.810;0.284;2023-03-16T11:57:00;12.60;99.90
58517;DHT22;44308;50.810;0.284;2023-03-16T12:10:32;12.80;99.90
58517;DHT22;44308;50.810;0.284;2023-03-16T12:13:14;12.90;99.90
58517;DHT22;44308;50.810;0.284;2023-03-16T12:15:47;12.70;99.90
58517;DHT22;44308;50.810;0.284;2023-03-16T12:18:24;12.50;99.90
58517;DHT22;44308;50.810;0.284;2023-03-16T12:20:59;12.70;99.90
58517;DHT22;44308;50.810;0.284;2023-03-16T12:23:42;12.90;99.90
58517;DHT22;44308;50.810;0.284;2023-03-16T12:26:14;12.90;99.90
58517;DHT22;44308;50.810;0.284;2023-03-16T12:28:41;13.00;99.90
58517;DHT22;44308;50.810;0.284;2023-03-16T12:45:16;13.20;99.90
58517;DHT22;44308;50.810;0.284;2023-03-16T12:48:27;13.10;99.90
58517;DHT22;44308;50.810;0.284;2023-03-16T12:50:59;13.40;99.90
58517;DHT22;44308;50.810;0.284;2023-03-16T12:53:27;13.60;99.90
58517;DHT22;44308;50.810;0.284;2023-03-16T12:55:55;13.60;99.90
58517;DHT22;44308;50.810;0.284;2023-03-16T12:58:23;13.50;99.90
58517;DHT22;44308;50.810;0.284;2023-03-16T13:00:56;13.30;99.90
58517;DHT22;44308;50.810;0.284;2023-03-16T13:03:24;13.30;99.90
58517;DHT22;44308;50.810;0.284;2023-03-16T13:05:55;13.10;99.90
58517;DHT22;44308;50.810;0.284;2023-03-16T13:08:23;12.90;99.90
58517;DHT22;44308;50.810;0.284;2023-03-16T13:11:05;12.80;99.90
58517;DHT22;44308;50.810;0.284;2023-03-16T13:13:35;12.80;99.90
58517;DHT22;44308;50.810;0.284;2023-03-16T13:16:27;13.20;99.90
58517;DHT22;44308;50.810;0.284;2023-03-16T13:18:53;13.90;99.90
58517;DHT22;44308;50.810;0.284;2023-03-16T13:21:37;14.10;99.90
58517;DHT22;44308;50.810;0.284;2023-03-16T13:24:26;14.10;99.90
58517;DHT22;44308;50.810;0.284;2023-03-16T13:27:12;14.10;99.90
58517;DHT22;44308;50.810;0.284;2023-03-16T13:29:40;13.90;99.90
58517;DHT22;44308;50.810;0.284;2023-03-16T13:32:13;13.70;99.90
58517;DHT22;44308;50.810;0.284;2023-03-16T13:34:49;13.90;99.90
58517;DHT22;44308;50.810;0.284;2023-03-16T13:37:18;14.10;99.90
58517;DHT22;44308;50.810;0.284;2023-03-16T13:39:59;14.10;99.90
58517;DHT22;44308;50.810;0.284;2023-03-16T13:42:31;14.30;99.90
58517;DHT22;44308;50.810;0.284;2023-03-16T13:44:58;14.30;99.90
58517;DHT22;44308;50.810;0.284;2023-03-16T13:47:32;14.30;99.90
58517;DHT22;44308;50.810;0.284;2023-03-16T13:49:58;14.10;99.90
58517;DHT22;44308;50.810;0.284;2023-03-16T13:52:33;14.00;99.90
58517;DHT22;44308;50.810;0.284;2023-03-16T13:55:02;13.90;99.90
58517;DHT22;44308;50.810;0.284;2023-03-16T13:57:31;13.70;99.90
58517;DHT22;44308;50.810;0.284;2023-03-16T14:00:03;13.60;99.90
58517;DHT22;44308;50.810;0.284;2023-03-16T14:02:34;13.50;99.90
58517;DHT22;44308;50.810;0.284;2023-03-16T14:05:33;13.40;99.90
58517;DHT22;44308;50.810;0.284;2023-03-16T14:07:59;13.40;99.90
58517;DHT22;44308;50.810;0.284;2023-03-16T14:10:32;13.20;99.90
58517;DHT22;44308;50.810;0.284;2023-03-16T14:13:21;13.20;99.90
58517;DHT22;44308;50.810;0.284;2023-03-16T14:15:46;13.30;99.90
58517;DHT22;44308;50.810;0.284;2023-03-16T14:18:17;13.30;99.90
58517;DHT22;44308;50.810;0.284;2023-03-16T14:20:50;13.30;99.90
58517;DHT22;44308;50.810;0.284;2023-03-16T14:23:22;13.40;99.90
58517;DHT22;44308;50.810;0.284;2023-03-16T14:25:50;13.60;99.90
58517;DHT22;44308;50.810;0.284;2023-03-16T14:28:20;13.60;99.90
58517;DHT22;44308;50.810;0.284;2023-03-16T14:30:52;13.60;99.90
58517;DHT22;44308;50.810;0.284;2023-03-16T14:33:27;13.50;99.90
58517;DHT22;44308;50.810;0.284;2023-03-16T14:35:56;13.40;99.90
58517;DHT22;44308;50.810;0.284;2023-03-16T14:38:34;13.30;99.90
58517;DHT22;44308;50.810;0.284;2023-03-16T14:41:20;13.30;99.90
58517;DHT22;44308;50.810;0.284;2023-03-16T14:43:50;13.30;99.90
58517;DHT22;44308;50.810;0.284;2023-03-16T14:46:26;13.30;99.90
58517;DHT22;44308;50.810;0.284;2023-03-16T14:49:02;13.30;99.90
58517;DHT22;44308;50.810;0.284;2023-03-16T14:51:31;13.50;99.90
58517;DHT22;44308;50.810;0.284;2023-03-16T14:53:58;13.50;99.90
58517;DHT22;44308;50.810;0.284;2023-03-16T14:56:46;13.60;99.90
58517;DHT22;44308;50.810;0.284;2023-03-16T14:59:12;13.70;99.90
58517;DHT22;44308;50.810;0.284;2023-03-16T15:01:38;13.70;99.90
58517;DHT22;44308;50.810;0.284;2023-03-16T15:04:04;13.70;99.90
58517;DHT22;44308;50.810;0.284;2023-03-16T15:06:33;13.60;99.90
58517;DHT22;44308;50.810;0.284;2023-03-16T15:08:59;13.60;99.90
58517;DHT22;44308;50.810;0.284;2023-03-16T15:11:27;13.60;99.90
58517;DHT22;44308;50.810;0.284;2023-03-16T15:13:53;13.60;99.90
58517;DHT22;44308;50.810;0.284;2023-03-16T15:16:31;13.60;99.90
58517;DHT22;44308;50.810;0.284;2023-03-16T15:18:57;13.60;99.90
58517;DHT22;44308;50.810;0.284;2023-03-16T15:21:25;13.50;99.90
58517;DHT22;44308;50.810;0.284;2023-03-16T15:23:54;13.50;99.90
58517;DHT22;44308;50.810;0.284;2023-03-16T15:26:25;13.20;99.90
58517;DHT22;44308;50.810;0.284;2023-03-16T15:28:53;13.20;99.90
58517;DHT22;44308;50.810;0.284;2023-03-16T15:31:19;13.00;99.90
58517;DHT22;44308;50.810;0.284;2023-03-16T15:33:48;13.10;99.90
58517;DHT22;44308;50.810;0.284;2023-03-16T15:36:32;13.40;99.90
58517;DHT22;44308;50.810;0.284;2023-03-16T15:38:58;13.60;99.90
58517;DHT22;44308;50.810;0.284;2023-03-16T15:41:26;13.80;99.90
58517;DHT22;44308;50.810;0.284;2023-03-16T15:43:51;13.80;99.90
58517;DHT22;44308;50.810;0.284;2023-03-16T15:46:17;13.80;99.90
58517;DHT22;44308;50.810;0.284;2023-03-16T15:48:43;13.90;99.90
58517;DHT22;44308;50.810;0.284;2023-03-16T15:51:35;13.90;99.90
58517;DHT22;44308;50.810;0.284;2023-03-16T15:54:03;13.90;99.90
58517;DHT22;44308;50.810;0.284;2023-03-16T15:56:33;13.70;99.90
58517;DHT22;44308;50.810;0.284;2023-03-16T15:59:05;13.60;99.90
58517;DHT22;44308;50.810;0.284;2023-03-16T16:01:41;13.70;99.90
58517;DHT22;44308;50.810;0.284;2023-03-16T16:04:15;13.60;99.90
58517;DHT22;44308;50.810;0.284;2023-03-16T16:06:44;13.50;99.90
58517;DHT22;44308;50.810;0.284;2023-03-16T16:09:11;13.30;99.90
58517;DHT22;44308;50.810;0.284;2023-03-16T16:11:37;13.30;99.90
58517;DHT22;44308;50.810;0.284;2023-03-16T16:14:30;13.30;99.90
58517;DHT22;44308;50.810;0.284;2023-03-16T16:17:08;13.30;99.90
58517;DHT22;44308;50.810;0.284;2023-03-16T16:19:34;13.10;99.90
58517;DHT22;44308;50.810;0.284;2023-03-16T16:22:00;13.00;99.90
58517;DHT22;44308;50.810;0.284;2023-03-16T16:24:25;12.80;99.90
58517;DHT22;44308;50.810;0.284;2023-03-16T16:26:51;12.60;99.90
58517;DHT22;44308;50.810;0.284;2023-03-16T16:29:20;12.50;99.90
58517;DHT22;44308;50.810;0.284;2023-03-16T16:31:49;12.60;99.90
58517;DHT22;44308;50.810;0.284;2023-03-16T16:34:20;12.50;99.90
58517;DHT22;44308;50.810;0.284;2023-03-16T16:36:48;12.60;99.90
58517;DHT22;44308;50.810;0.284;2023-03-16T16:39:14;12.50;99.90
58517;DHT22;44308;50.810;0.284;2023-03-16T16:41:41;12.50;99.90
58517;DHT22;44308;50.810;0.284;2023-03-16T16:44:19;12.50;99.90
58517;DHT22;44308;50.810;0.284;2023-03-16T16:46:47;12.50;99.90
58517;DHT22;44308;50.810;0.284;2023-03-16T16:49:27;12.30;99.90
58517;DHT22;44308;50.810;0.284;2023-03-16T16:51:55;12.20;99.90
58517;DHT22;44308;50.810;0.284;2023-03-16T16:54:27;12.20;99.90
58517;DHT22;44308;50.810;0.284;2023-03-16T16:56:55;12.20;99.90
58517;DHT22;44308;50.810;0.284;2023-03-16T16:59:28;12.10;99.90